createdAt,value
2022-09-11T00:00:47.876Z,0.00
2022-09-11T00:01:47.897Z,0.00
2022-09-11T00:02:47.880Z,0.00
2022-09-11T00:03:47.823Z,0.00
2022-09-11T00:04:47.859Z,0.00
2022-09-11T00:05:47.809Z,0.00
2022-09-11T00:06:47.793Z,0.00
2022-09-11T00:07:47.770Z,0.00
2022-09-11T00:08:47.769Z,0.00
2022-09-11T00:09:47.755Z,0.00
2022-09-11T00:10:47.756Z,0.00
2022-09-11T00:11:47.727Z,0.00
2022-09-11T00:12:47.725Z,0.00
2022-09-11T00:13:47.705Z,0.00
2022-09-11T00:14:47.700Z,0.00
2022-09-11T00:15:47.724Z,0.00
2022-09-11T00:16:47.671Z,0.00
2022-09-11T00:17:47.663Z,0.00
2022-09-11T00:18:47.653Z,0.00
2022-09-11T00:19:47.643Z,0.00
2022-09-11T00:20:47.658Z,0.00
2022-09-11T00:21:47.614Z,0.00
2022-09-11T00:22:47.609Z,0.00
2022-09-11T00:23:47.592Z,0.00
2022-09-11T00:24:47.584Z,0.00
2022-09-11T00:25:47.586Z,0.00
2022-09-11T00:26:47.587Z,0.00
2022-09-11T00:27:47.541Z,0.00
2022-09-11T00:28:47.550Z,0.00
2022-09-11T00:29:47.526Z,0.00
2022-09-11T00:30:47.521Z,0.00
2022-09-11T00:31:47.512Z,0.00
2022-09-11T00:32:47.494Z,0.00
2022-09-11T00:33:47.494Z,0.00
2022-09-11T00:34:47.473Z,0.00
2022-09-11T00:35:47.470Z,0.00
2022-09-11T00:36:47.469Z,0.00
2022-09-11T00:37:47.436Z,0.00
2022-09-11T00:38:47.417Z,0.00
2022-09-11T00:39:47.452Z,0.00
2022-09-11T00:40:47.422Z,0.00
2022-09-11T00:41:47.388Z,0.00
2022-09-11T00:42:47.375Z,0.00
2022-09-11T00:43:47.367Z,0.00
2022-09-11T00:44:47.360Z,0.00
2022-09-11T00:45:47.398Z,0.00
2022-09-11T00:46:47.327Z,0.00
2022-09-11T00:47:47.327Z,0.00
2022-09-11T00:48:47.304Z,0.00
2022-09-11T00:49:47.292Z,0.00
2022-09-11T00:50:47.302Z,0.00
2022-09-11T00:51:47.275Z,0.00
2022-09-11T00:52:50.061Z,0.00
2022-09-11T00:53:48.250Z,0.00
2022-09-11T00:54:47.243Z,0.00
2022-09-11T00:55:47.238Z,0.00
2022-09-11T00:56:47.212Z,0.00
2022-09-11T00:57:47.202Z,0.00
2022-09-11T00:58:47.189Z,0.00
2022-09-11T00:59:47.177Z,0.00
2022-09-11T01:00:47.227Z,0.00
2022-09-11T01:01:47.204Z,0.00
2022-09-11T01:02:47.146Z,0.00
2022-09-11T01:03:47.138Z,0.00
2022-09-11T01:04:47.121Z,0.00
2022-09-11T01:05:47.122Z,0.00
2022-09-11T01:06:47.096Z,0.00
2022-09-11T01:07:47.097Z,0.00
2022-09-11T01:08:47.100Z,0.00
2022-09-11T01:09:47.069Z,0.00
2022-09-11T01:10:47.102Z,0.00
2022-09-11T01:11:47.051Z,0.00
2022-09-11T01:12:47.040Z,0.00
2022-09-11T01:13:47.025Z,0.00
2022-09-11T01:14:47.019Z,0.00
2022-09-11T01:15:47.015Z,0.00
2022-09-11T01:16:46.990Z,0.00
2022-09-11T01:17:46.970Z,0.00
2022-09-11T01:18:46.967Z,0.00
2022-09-11T01:19:46.964Z,0.00
2022-09-11T01:20:46.963Z,0.00
2022-09-11T01:21:46.930Z,0.00
2022-09-11T01:22:46.915Z,0.00
2022-09-11T01:23:46.910Z,0.00
2022-09-11T01:24:46.913Z,0.00
2022-09-11T01:25:46.893Z,0.00
2022-09-11T01:26:46.875Z,0.00
2022-09-11T01:27:46.863Z,0.00
2022-09-11T01:28:46.851Z,0.00
2022-09-11T01:29:46.835Z,0.00
2022-09-11T01:30:46.844Z,0.00
2022-09-11T01:31:46.873Z,0.00
2022-09-11T01:32:46.812Z,0.00
2022-09-11T01:33:46.794Z,0.00
2022-09-11T01:34:46.783Z,0.00
2022-09-11T01:35:46.786Z,0.00
2022-09-11T01:36:46.754Z,0.00
2022-09-11T01:37:46.745Z,0.00
2022-09-11T01:38:46.750Z,0.00
2022-09-11T01:39:46.761Z,0.00
2022-09-11T01:40:46.740Z,0.00
2022-09-11T01:41:46.702Z,0.00
2022-09-11T01:42:46.693Z,0.00
2022-09-11T01:43:46.678Z,0.00
2022-09-11T01:44:46.670Z,0.00
2022-09-11T01:45:46.717Z,0.00
2022-09-11T01:46:46.639Z,0.00
2022-09-11T01:47:46.637Z,0.00
2022-09-11T01:48:46.620Z,0.00
2022-09-11T01:49:46.609Z,0.00
2022-09-11T01:50:46.615Z,0.00
2022-09-11T01:51:46.588Z,0.00
2022-09-11T01:52:46.572Z,0.00
2022-09-11T01:53:50.013Z,0.00
2022-09-11T01:54:46.560Z,0.00
2022-09-11T01:55:46.537Z,0.00
2022-09-11T01:56:46.575Z,0.00
2022-09-11T01:57:46.520Z,0.00
2022-09-11T01:58:46.510Z,0.00
2022-09-11T01:59:46.491Z,0.00
2022-09-11T02:00:46.516Z,0.00
2022-09-11T02:01:46.533Z,0.00
2022-09-11T02:02:46.461Z,0.00
2022-09-11T02:03:46.447Z,0.00
2022-09-11T02:04:46.442Z,0.00
2022-09-11T02:05:46.430Z,0.00
2022-09-11T02:06:46.441Z,0.00
2022-09-11T02:07:46.406Z,0.00
2022-09-11T02:08:46.389Z,0.00
2022-09-11T02:09:46.377Z,0.00
2022-09-11T02:10:46.370Z,0.00
2022-09-11T02:11:46.375Z,0.00
2022-09-11T02:12:46.370Z,0.00
2022-09-11T02:13:46.332Z,0.00
2022-09-11T02:14:46.322Z,0.00
2022-09-11T02:15:46.318Z,0.00
2022-09-11T02:16:46.318Z,0.00
2022-09-11T02:17:46.295Z,0.00
2022-09-11T02:18:46.276Z,0.00
2022-09-11T02:19:46.261Z,0.00
2022-09-11T02:20:46.252Z,0.00
2022-09-11T02:21:46.255Z,0.00
2022-09-11T02:22:46.238Z,0.00
2022-09-11T02:23:46.218Z,0.00
2022-09-11T02:24:46.214Z,0.00
2022-09-11T02:25:46.193Z,0.00
2022-09-11T02:26:46.206Z,0.00
2022-09-11T02:27:46.170Z,0.00
2022-09-11T02:28:46.189Z,0.00
2022-09-11T02:29:46.156Z,0.00
2022-09-11T02:30:46.146Z,0.00
2022-09-11T02:31:46.183Z,0.00
2022-09-11T02:32:46.115Z,0.00
2022-09-11T02:33:46.114Z,0.00
2022-09-11T02:34:46.093Z,0.00
2022-09-11T02:35:46.081Z,0.00
2022-09-11T02:36:46.085Z,0.00
2022-09-11T02:37:46.063Z,0.00
2022-09-11T02:38:46.046Z,0.00
2022-09-11T02:39:46.085Z,0.00
2022-09-11T02:40:46.024Z,0.00
2022-09-11T02:41:46.031Z,0.00
2022-09-11T02:42:46.000Z,0.00
2022-09-11T02:43:45.997Z,0.00
2022-09-11T02:44:46.003Z,0.00
2022-09-11T02:45:46.012Z,0.00
2022-09-11T02:46:45.995Z,0.00
2022-09-11T02:47:45.945Z,0.00
2022-09-11T02:48:45.940Z,0.00
2022-09-11T02:49:45.925Z,0.00
2022-09-11T02:50:45.947Z,0.00
2022-09-11T02:51:45.925Z,0.00
2022-09-11T02:52:45.894Z,0.00
2022-09-11T02:53:45.874Z,0.00
2022-09-11T02:54:45.876Z,0.00
2022-09-11T02:55:45.851Z,0.00
2022-09-11T02:56:45.857Z,0.00
2022-09-11T02:57:45.837Z,0.00
2022-09-11T02:58:45.816Z,0.00
2022-09-11T02:59:45.804Z,0.00
2022-09-11T03:00:45.832Z,0.00
2022-09-11T03:01:45.853Z,0.00
2022-09-11T03:02:45.779Z,0.00
2022-09-11T03:03:46.332Z,0.00
2022-09-11T03:04:45.755Z,0.00
2022-09-11T03:05:45.748Z,0.00
2022-09-11T03:06:45.748Z,0.00
2022-09-11T03:07:45.715Z,0.00
2022-09-11T03:08:45.705Z,0.00
2022-09-11T03:09:45.701Z,0.00
2022-09-11T03:10:45.689Z,0.00
2022-09-11T03:11:45.693Z,0.00
2022-09-11T03:12:45.663Z,0.00
2022-09-11T03:13:45.654Z,0.00
2022-09-11T03:14:45.643Z,0.00
2022-09-11T03:15:45.625Z,0.00
2022-09-11T03:16:45.665Z,0.00
2022-09-11T03:17:45.611Z,0.00
2022-09-11T03:18:45.597Z,0.00
2022-09-11T03:19:45.590Z,0.00
2022-09-11T03:20:45.568Z,0.00
2022-09-11T03:21:45.579Z,0.00
2022-09-11T03:22:45.544Z,0.00
2022-09-11T03:23:45.548Z,0.00
2022-09-11T03:24:45.525Z,0.00
2022-09-11T03:25:45.519Z,0.00
2022-09-11T03:26:45.532Z,0.00
2022-09-11T03:27:45.497Z,0.00
2022-09-11T03:28:45.482Z,0.00
2022-09-11T03:29:45.466Z,0.00
2022-09-11T03:30:45.463Z,0.00
2022-09-11T03:31:45.481Z,0.00
2022-09-11T03:32:45.457Z,0.00
2022-09-11T03:33:45.435Z,0.00
2022-09-11T03:34:45.413Z,0.00
2022-09-11T03:35:45.396Z,0.00
2022-09-11T03:36:45.400Z,0.00
2022-09-11T03:37:45.381Z,0.00
2022-09-11T03:38:45.367Z,0.00
2022-09-11T03:39:45.376Z,0.00
2022-09-11T03:40:45.343Z,0.00
2022-09-11T03:41:45.344Z,0.00
2022-09-11T03:42:45.322Z,0.00
2022-09-11T03:43:45.313Z,0.00
2022-09-11T03:44:45.300Z,0.00
2022-09-11T03:45:45.328Z,0.00
2022-09-11T03:46:45.288Z,0.00
2022-09-11T03:47:45.265Z,0.00
2022-09-11T03:48:45.267Z,0.00
2022-09-11T03:49:45.236Z,0.00
2022-09-11T03:50:45.231Z,0.00
2022-09-11T03:51:45.227Z,0.00
2022-09-11T03:52:45.203Z,0.00
2022-09-11T03:53:45.197Z,0.00
2022-09-11T03:54:45.178Z,0.00
2022-09-11T03:55:45.696Z,0.00
2022-09-11T03:56:45.203Z,0.00
2022-09-11T03:57:45.144Z,0.00
2022-09-11T03:58:45.131Z,0.00
2022-09-11T03:59:45.125Z,0.00
2022-09-11T04:00:45.217Z,0.00
2022-09-11T04:01:45.197Z,0.00
2022-09-11T04:02:45.086Z,0.00
2022-09-11T04:03:45.075Z,0.00
2022-09-11T04:04:45.087Z,0.00
2022-09-11T04:05:45.054Z,0.00
2022-09-11T04:06:45.061Z,0.00
2022-09-11T04:07:45.037Z,0.00
2022-09-11T04:08:45.025Z,0.00
2022-09-11T04:09:45.009Z,0.00
2022-09-11T04:10:44.996Z,0.00
2022-09-11T04:11:44.998Z,0.00
2022-09-11T04:12:44.972Z,0.00
2022-09-11T04:13:44.962Z,0.00
2022-09-11T04:14:44.954Z,0.00
2022-09-11T04:15:44.952Z,0.00
2022-09-11T04:16:45.014Z,0.00
2022-09-11T04:17:44.917Z,0.00
2022-09-11T04:18:44.904Z,0.00
2022-09-11T04:19:44.902Z,0.00
2022-09-11T04:20:44.910Z,0.00
2022-09-11T04:21:44.888Z,0.00
2022-09-11T04:22:44.864Z,0.00
2022-09-11T04:23:44.848Z,0.00
2022-09-11T04:24:44.843Z,0.00
2022-09-11T04:25:44.830Z,0.00
2022-09-11T04:26:44.824Z,0.00
2022-09-11T04:27:44.803Z,0.00
2022-09-11T04:28:44.791Z,0.00
2022-09-11T04:29:44.789Z,0.00
2022-09-11T04:30:44.799Z,0.00
2022-09-11T04:31:44.821Z,0.00
2022-09-11T04:32:44.754Z,0.00
2022-09-11T04:33:44.739Z,0.00
2022-09-11T04:34:44.722Z,0.00
2022-09-11T04:35:44.712Z,0.00
2022-09-11T04:36:44.734Z,0.00
2022-09-11T04:37:44.694Z,0.00
2022-09-11T04:38:44.682Z,0.00
2022-09-11T04:39:44.727Z,0.00
2022-09-11T04:40:44.665Z,4.00
2022-09-11T04:41:44.659Z,4.00
2022-09-11T04:42:44.635Z,0.00
2022-09-11T04:43:44.635Z,0.00
2022-09-11T04:44:44.612Z,0.00
2022-09-11T04:45:44.635Z,4.00
2022-09-11T04:46:44.592Z,4.00
2022-09-11T04:47:44.590Z,4.00
2022-09-11T04:48:44.571Z,4.00
2022-09-11T04:49:44.561Z,4.00
2022-09-11T04:50:44.547Z,8.00
2022-09-11T04:51:44.536Z,4.00
2022-09-11T04:52:44.550Z,8.00
2022-09-11T04:53:44.514Z,4.00
2022-09-11T04:54:44.512Z,8.00
2022-09-11T04:55:44.488Z,12.00
2022-09-11T04:56:44.476Z,12.00
2022-09-11T04:57:44.479Z,12.00
2022-09-11T04:58:44.456Z,12.00
2022-09-11T04:59:44.445Z,16.00
2022-09-11T05:00:44.486Z,16.00
2022-09-11T05:01:44.519Z,20.00
2022-09-11T05:02:44.417Z,20.00
2022-09-11T05:03:44.399Z,20.00
2022-09-11T05:04:44.388Z,20.00
2022-09-11T05:05:44.369Z,24.00
2022-09-11T05:06:44.366Z,24.00
2022-09-11T05:07:44.369Z,28.00
2022-09-11T05:08:44.356Z,32.00
2022-09-11T05:09:44.334Z,36.00
2022-09-11T05:10:44.321Z,40.00
2022-09-11T05:11:44.301Z,44.00
2022-09-11T05:12:44.310Z,44.00
2022-09-11T05:13:44.373Z,44.00
2022-09-11T05:14:44.270Z,48.00
2022-09-11T05:15:44.259Z,44.00
2022-09-11T05:16:44.310Z,48.00
2022-09-11T05:17:44.250Z,44.00
2022-09-11T05:18:44.233Z,48.00
2022-09-11T05:19:44.224Z,52.00
2022-09-11T05:20:44.204Z,56.00
2022-09-11T05:21:44.198Z,60.00
2022-09-11T05:22:44.193Z,64.00
2022-09-11T05:23:44.350Z,76.00
2022-09-11T05:24:44.182Z,84.00
2022-09-11T05:25:44.148Z,80.00
2022-09-11T05:26:44.137Z,80.00
2022-09-11T05:27:44.152Z,84.00
2022-09-11T05:28:44.122Z,80.00
2022-09-11T05:29:44.109Z,84.00
2022-09-11T05:30:44.101Z,84.00
2022-09-11T05:31:44.170Z,84.00
2022-09-11T05:32:44.090Z,84.00
2022-09-11T05:33:44.069Z,92.00
2022-09-11T05:34:44.058Z,100.00
2022-09-11T05:35:44.041Z,108.00
2022-09-11T05:36:44.034Z,108.00
2022-09-11T05:37:44.038Z,104.00
2022-09-11T05:38:44.005Z,104.00
2022-09-11T05:39:44.057Z,120.00
2022-09-11T05:40:44.012Z,124.00
2022-09-11T05:41:43.981Z,136.00
2022-09-11T05:42:43.985Z,140.00
2022-09-11T05:43:44.183Z,148.00
2022-09-11T05:44:43.947Z,136.00
2022-09-11T05:45:43.976Z,136.00
2022-09-11T05:46:43.924Z,144.00
2022-09-11T05:47:43.919Z,132.00
2022-09-11T05:48:43.892Z,116.00
2022-09-11T05:49:43.885Z,108.00
2022-09-11T05:50:43.878Z,112.00
2022-09-11T05:51:43.871Z,116.00
2022-09-11T05:52:43.860Z,128.00
2022-09-11T05:53:44.021Z,160.00
2022-09-11T05:54:43.826Z,168.00
2022-09-11T05:55:43.827Z,180.00
2022-09-11T05:56:43.834Z,236.00
2022-09-11T05:57:43.817Z,304.00
2022-09-11T05:58:43.783Z,360.00
2022-09-11T05:59:43.778Z,372.00
2022-09-11T06:00:43.767Z,312.00
2022-09-11T06:01:43.753Z,248.00
2022-09-11T06:02:43.760Z,240.00
2022-09-11T06:03:43.940Z,232.00
2022-09-11T06:04:43.714Z,204.00
2022-09-11T06:05:43.712Z,192.00
2022-09-11T06:06:43.741Z,196.00
2022-09-11T06:07:43.704Z,220.00
2022-09-11T06:08:43.673Z,248.00
2022-09-11T06:09:43.661Z,260.00
2022-09-11T06:10:43.659Z,244.00
2022-09-11T06:11:43.646Z,220.00
2022-09-11T06:12:43.663Z,232.00
2022-09-11T06:13:43.768Z,256.00
2022-09-11T06:14:43.604Z,260.00
2022-09-11T06:15:46.891Z,296.00
2022-09-11T06:16:43.710Z,332.00
2022-09-11T06:17:43.592Z,364.00
2022-09-11T06:18:43.560Z,400.00
2022-09-11T06:19:43.552Z,432.00
2022-09-11T06:20:43.545Z,408.00
2022-09-11T06:21:43.536Z,388.00
2022-09-11T06:22:43.539Z,388.00
2022-09-11T06:23:43.799Z,408.00
2022-09-11T06:24:43.492Z,460.00
2022-09-11T06:25:43.488Z,500.00
2022-09-11T06:26:43.470Z,480.00
2022-09-11T06:27:43.478Z,464.00
2022-09-11T06:28:43.475Z,464.00
2022-09-11T06:29:43.440Z,468.00
2022-09-11T06:30:43.511Z,464.00
2022-09-11T06:31:43.425Z,492.00
2022-09-11T06:32:43.413Z,484.00
2022-09-11T06:33:43.519Z,536.00
2022-09-11T06:34:43.387Z,692.00
2022-09-11T06:35:43.390Z,812.00
2022-09-11T06:36:43.364Z,804.00
2022-09-11T06:37:43.363Z,796.00
2022-09-11T06:38:43.334Z,820.00
2022-09-11T06:39:43.417Z,836.00
2022-09-11T06:40:43.313Z,696.00
2022-09-11T06:41:43.310Z,680.00
2022-09-11T06:42:43.309Z,720.00
2022-09-11T06:43:43.381Z,736.00
2022-09-11T06:44:44.924Z,752.00
2022-09-11T06:45:43.290Z,724.00
2022-09-11T06:46:43.254Z,852.00
2022-09-11T06:47:43.250Z,740.00
2022-09-11T06:48:43.234Z,720.00
2022-09-11T06:49:43.212Z,828.00
2022-09-11T06:50:43.200Z,992.00
2022-09-11T06:51:43.197Z,996.00
2022-09-11T06:52:43.191Z,900.00
2022-09-11T06:53:43.284Z,904.00
2022-09-11T06:54:43.156Z,848.00
2022-09-11T06:55:43.151Z,856.00
2022-09-11T06:56:43.132Z,816.00
2022-09-11T06:57:43.135Z,880.00
2022-09-11T06:58:43.122Z,924.00
2022-09-11T06:59:43.102Z,920.00
2022-09-11T07:00:43.109Z,984.00
2022-09-11T07:01:43.235Z,996.00
2022-09-11T07:02:43.085Z,876.00
2022-09-11T07:03:43.182Z,716.00
2022-09-11T07:04:43.049Z,860.00
2022-09-11T07:05:43.033Z,840.00
2022-09-11T07:06:43.026Z,904.00
2022-09-11T07:07:43.044Z,1012.00
2022-09-11T07:08:42.997Z,956.00
2022-09-11T07:09:42.994Z,1144.00
2022-09-11T07:10:42.985Z,1372.00
2022-09-11T07:11:42.965Z,1520.00
2022-09-11T07:12:42.968Z,1388.00
2022-09-11T07:13:42.962Z,1260.00
2022-09-11T07:14:42.940Z,1272.00
2022-09-11T07:15:42.930Z,1336.00
2022-09-11T07:16:43.032Z,1388.00
2022-09-11T07:17:42.923Z,1632.00
2022-09-11T07:18:42.888Z,1628.00
2022-09-11T07:19:42.883Z,1288.00
2022-09-11T07:20:42.867Z,1208.00
2022-09-11T07:21:42.856Z,1084.00
2022-09-11T07:22:42.858Z,912.00
2022-09-11T07:23:43.023Z,840.00
2022-09-11T07:24:42.823Z,760.00
2022-09-11T07:25:42.820Z,776.00
2022-09-11T07:26:42.811Z,788.00
2022-09-11T07:27:42.829Z,808.00
2022-09-11T07:28:42.789Z,880.00
2022-09-11T07:29:42.781Z,924.00
2022-09-11T07:30:42.837Z,956.00
2022-09-11T07:31:42.751Z,956.00
2022-09-11T07:32:42.780Z,972.00
2022-09-11T07:33:42.916Z,984.00
2022-09-11T07:34:42.716Z,972.00
2022-09-11T07:35:42.701Z,956.00
2022-09-11T07:36:42.700Z,920.00
2022-09-11T07:37:42.688Z,828.00
2022-09-11T07:38:42.685Z,740.00
2022-09-11T07:39:42.734Z,692.00
2022-09-11T07:40:42.650Z,628.00
2022-09-11T07:41:42.642Z,588.00
2022-09-11T07:42:42.634Z,532.00
2022-09-11T07:43:42.833Z,468.00
2022-09-11T07:44:42.614Z,448.00
2022-09-11T07:45:42.629Z,456.00
2022-09-11T07:46:42.596Z,436.00
2022-09-11T07:47:42.571Z,388.00
2022-09-11T07:48:42.596Z,392.00
2022-09-11T07:49:42.557Z,420.00
2022-09-11T07:50:42.549Z,456.00
2022-09-11T07:51:42.538Z,468.00
2022-09-11T07:52:42.527Z,500.00
2022-09-11T07:53:42.846Z,552.00
2022-09-11T07:54:42.502Z,592.00
2022-09-11T07:55:42.493Z,664.00
2022-09-11T07:56:42.474Z,680.00
2022-09-11T07:57:42.461Z,672.00
2022-09-11T07:58:42.468Z,648.00
2022-09-11T07:59:42.447Z,652.00
2022-09-11T08:00:42.429Z,732.00
2022-09-11T08:01:42.419Z,872.00
2022-09-11T08:02:42.468Z,924.00
2022-09-11T08:03:42.595Z,896.00
2022-09-11T08:04:42.416Z,940.00
2022-09-11T08:05:42.375Z,996.00
2022-09-11T08:06:42.374Z,1048.00
2022-09-11T08:07:42.360Z,1052.00
2022-09-11T08:08:42.359Z,1096.00
2022-09-11T08:09:42.331Z,1112.00
2022-09-11T08:10:42.346Z,1180.00
2022-09-11T08:11:42.314Z,1140.00
2022-09-11T08:12:42.297Z,1092.00
2022-09-11T08:13:42.516Z,1048.00
2022-09-11T08:14:42.275Z,1020.00
2022-09-11T08:15:42.270Z,1044.00
2022-09-11T08:16:42.332Z,1312.00
2022-09-11T08:17:42.246Z,1264.00
2022-09-11T08:18:42.250Z,1196.00
2022-09-11T08:19:42.222Z,1304.00
2022-09-11T08:20:42.241Z,1240.00
2022-09-11T08:21:42.203Z,1204.00
2022-09-11T08:22:42.193Z,1164.00
2022-09-11T08:23:42.334Z,1212.00
2022-09-11T08:24:42.165Z,1180.00
2022-09-11T08:25:42.154Z,1140.00
2022-09-11T08:26:44.651Z,1060.00
2022-09-11T08:27:43.130Z,1100.00
2022-09-11T08:28:42.226Z,1188.00
2022-09-11T08:29:42.108Z,1120.00
2022-09-11T08:30:42.105Z,996.00
2022-09-11T08:31:42.087Z,964.00
2022-09-11T08:32:42.076Z,968.00
2022-09-11T08:33:42.342Z,1024.00
2022-09-11T08:34:42.062Z,1052.00
2022-09-11T08:35:42.043Z,916.00
2022-09-11T08:36:42.053Z,824.00
2022-09-11T08:37:42.030Z,936.00
2022-09-11T08:38:42.034Z,1064.00
2022-09-11T08:39:42.044Z,1192.00
2022-09-11T08:40:41.995Z,1084.00
2022-09-11T08:41:41.990Z,1020.00
2022-09-11T08:42:41.973Z,1080.00
2022-09-11T08:43:42.085Z,1100.00
2022-09-11T08:44:41.952Z,1136.00
2022-09-11T08:45:41.978Z,1028.00
2022-09-11T08:46:41.921Z,1096.00
2022-09-11T08:47:41.910Z,1044.00
2022-09-11T08:48:41.917Z,1084.00
2022-09-11T08:49:41.897Z,1240.00
2022-09-11T08:50:41.887Z,1324.00
2022-09-11T08:51:41.867Z,1300.00
2022-09-11T08:52:41.877Z,1252.00
2022-09-11T08:53:41.970Z,1056.00
2022-09-11T08:54:41.837Z,964.00
2022-09-11T08:55:41.823Z,952.00
2022-09-11T08:56:41.845Z,884.00
2022-09-11T08:57:41.808Z,868.00
2022-09-11T08:58:41.813Z,836.00
2022-09-11T08:59:41.786Z,832.00
2022-09-11T09:00:41.770Z,824.00
2022-09-11T09:01:41.788Z,868.00
2022-09-11T09:02:41.753Z,968.00
2022-09-11T09:03:41.915Z,1024.00
2022-09-11T09:04:41.725Z,1100.00
2022-09-11T09:05:41.720Z,1152.00
2022-09-11T09:06:41.704Z,1216.00
2022-09-11T09:07:41.698Z,1216.00
2022-09-11T09:08:41.788Z,1276.00
2022-09-11T09:09:41.704Z,1340.00
2022-09-11T09:10:41.668Z,1464.00
2022-09-11T09:11:41.649Z,1552.00
2022-09-11T09:12:41.676Z,1500.00
2022-09-11T09:13:41.768Z,1464.00
2022-09-11T09:14:41.630Z,1608.00
2022-09-11T09:15:41.662Z,1684.00
2022-09-11T09:16:41.599Z,1604.00
2022-09-11T09:17:41.592Z,1524.00
2022-09-11T09:18:41.584Z,1588.00
2022-09-11T09:19:41.560Z,1544.00
2022-09-11T09:20:41.555Z,1640.00
2022-09-11T09:21:41.540Z,1600.00
2022-09-11T09:22:41.527Z,1632.00
2022-09-11T09:23:41.599Z,2004.00
2022-09-11T09:24:41.534Z,2112.00
2022-09-11T09:25:41.490Z,2264.00
2022-09-11T09:26:41.549Z,2364.00
2022-09-11T09:27:41.477Z,2408.00
2022-09-11T09:28:41.470Z,2416.00
2022-09-11T09:29:41.454Z,2136.00
2022-09-11T09:30:41.444Z,1996.00
2022-09-11T09:31:41.430Z,1848.00
2022-09-11T09:32:41.413Z,1736.00
2022-09-11T09:33:41.459Z,1724.00
2022-09-11T09:34:41.393Z,1736.00
2022-09-11T09:35:41.385Z,1432.00
2022-09-11T09:36:41.368Z,1296.00
2022-09-11T09:37:41.369Z,1272.00
2022-09-11T09:38:41.391Z,1336.00
2022-09-11T09:39:41.376Z,1364.00
2022-09-11T09:40:41.341Z,1588.00
2022-09-11T09:41:41.316Z,1816.00
2022-09-11T09:42:41.302Z,2128.00
2022-09-11T09:43:41.353Z,2092.00
2022-09-11T09:44:41.286Z,2060.00
2022-09-11T09:45:41.338Z,1876.00
2022-09-11T09:46:41.263Z,1812.00
2022-09-11T09:47:41.251Z,1876.00
2022-09-11T09:48:41.321Z,1880.00
2022-09-11T09:49:41.223Z,1808.00
2022-09-11T09:50:41.216Z,1676.00
2022-09-11T09:51:41.207Z,1632.00
2022-09-11T09:52:41.190Z,1644.00
2022-09-11T09:53:41.193Z,1588.00
2022-09-11T09:54:41.177Z,1624.00
2022-09-11T09:55:41.155Z,1588.00
2022-09-11T09:56:41.173Z,1588.00
2022-09-11T09:57:41.144Z,1628.00
2022-09-11T09:58:41.158Z,1584.00
2022-09-11T09:59:41.117Z,1452.00
2022-09-11T10:00:41.101Z,1476.00
2022-09-11T10:01:41.192Z,1592.00
2022-09-11T10:02:41.084Z,1464.00
2022-09-11T10:03:41.080Z,1496.00
2022-09-11T10:04:41.061Z,1580.00
2022-09-11T10:05:41.049Z,1708.00
2022-09-11T10:06:41.046Z,1832.00
2022-09-11T10:07:41.026Z,1856.00
2022-09-11T10:08:41.042Z,1996.00
2022-09-11T10:09:41.000Z,2192.00
2022-09-11T10:10:40.996Z,2580.00
2022-09-11T10:11:40.975Z,3084.00
2022-09-11T10:12:40.995Z,2752.00
2022-09-11T10:13:40.962Z,2460.00
2022-09-11T10:14:51.564Z,2824.00
2022-09-11T10:15:41.992Z,2640.00
2022-09-11T10:16:40.924Z,2384.00
2022-09-11T10:17:40.918Z,2460.00
2022-09-11T10:18:40.966Z,3112.00
2022-09-11T10:19:40.889Z,3340.00
2022-09-11T10:20:40.900Z,2780.00
2022-09-11T10:21:40.861Z,2664.00
2022-09-11T10:22:40.851Z,3056.00
2022-09-11T10:23:40.857Z,3260.00
2022-09-11T10:24:40.835Z,3572.00
2022-09-11T10:25:40.822Z,5180.00
2022-09-11T10:26:40.814Z,6028.00
2022-09-11T10:27:40.794Z,6148.00
2022-09-11T10:28:40.815Z,5972.00
2022-09-11T10:29:40.775Z,6056.00
2022-09-11T10:30:40.761Z,6364.00
2022-09-11T10:31:40.748Z,7488.00
2022-09-11T10:32:40.745Z,7956.00
2022-09-11T10:33:40.739Z,7228.00
2022-09-11T10:34:40.723Z,6940.00
2022-09-11T10:35:40.701Z,5816.00
2022-09-11T10:36:40.691Z,6268.00
2022-09-11T10:37:40.685Z,6192.00
2022-09-11T10:38:41.571Z,6204.00
2022-09-11T10:39:40.688Z,6072.00
2022-09-11T10:40:40.646Z,5852.00
2022-09-11T10:41:40.641Z,5604.00
2022-09-11T10:42:40.641Z,5496.00
2022-09-11T10:43:40.635Z,5416.00
2022-09-11T10:44:40.630Z,5364.00
2022-09-11T10:45:40.634Z,5332.00
2022-09-11T10:46:41.078Z,5052.00
2022-09-11T10:47:40.577Z,4952.00
2022-09-11T10:48:40.628Z,4908.00
2022-09-11T10:49:40.545Z,4952.00
2022-09-11T10:50:40.573Z,5080.00
2022-09-11T10:51:43.086Z,5436.00
2022-09-11T10:52:40.520Z,5676.00
2022-09-11T10:53:40.521Z,5696.00
2022-09-11T10:54:40.489Z,5884.00
2022-09-11T10:55:40.492Z,6052.00
2022-09-11T10:56:40.473Z,6100.00
2022-09-11T10:57:40.462Z,6204.00
2022-09-11T10:58:40.470Z,6156.00
2022-09-11T10:59:40.436Z,6056.00
2022-09-11T11:00:40.445Z,5948.00
2022-09-11T11:01:40.528Z,5848.00
2022-09-11T11:02:40.407Z,5836.00
2022-09-11T11:03:40.410Z,5880.00
2022-09-11T11:04:40.379Z,6100.00
2022-09-11T11:05:40.367Z,6500.00
2022-09-11T11:06:40.362Z,6956.00
2022-09-11T11:07:40.344Z,7416.00
2022-09-11T11:08:40.494Z,7724.00
2022-09-11T11:09:40.329Z,7928.00
2022-09-11T11:10:40.311Z,8176.00
2022-09-11T11:11:40.322Z,9144.00
2022-09-11T11:12:40.303Z,8664.00
2022-09-11T11:13:40.300Z,8716.00
2022-09-11T11:14:40.271Z,8732.00
2022-09-11T11:15:40.308Z,9048.00
2022-09-11T11:16:40.266Z,9276.00
2022-09-11T11:17:40.240Z,7696.00
2022-09-11T11:18:40.339Z,8804.00
2022-09-11T11:19:40.222Z,7936.00
2022-09-11T11:20:40.202Z,7028.00
2022-09-11T11:21:40.197Z,8064.00
2022-09-11T11:22:40.187Z,8368.00
2022-09-11T11:23:40.171Z,8436.00
2022-09-11T11:24:40.171Z,7444.00
2022-09-11T11:25:40.153Z,5456.00
2022-09-11T11:26:40.142Z,6796.00
2022-09-11T11:27:40.125Z,4744.00
2022-09-11T11:28:40.114Z,4552.00
2022-09-11T11:29:40.114Z,8004.00
2022-09-11T11:30:40.109Z,8596.00
2022-09-11T11:31:44.135Z,8704.00
2022-09-11T11:32:40.097Z,8148.00
2022-09-11T11:33:40.055Z,5104.00
2022-09-11T11:34:40.074Z,4772.00
2022-09-11T11:35:40.046Z,4812.00
2022-09-11T11:36:40.037Z,8464.00
2022-09-11T11:37:40.023Z,9100.00
2022-09-11T11:38:40.108Z,6736.00
2022-09-11T11:39:40.078Z,5052.00
2022-09-11T11:40:39.989Z,4968.00
2022-09-11T11:41:39.981Z,4784.00
2022-09-11T11:42:39.968Z,5652.00
2022-09-11T11:43:39.959Z,8284.00
2022-09-11T11:44:39.961Z,7192.00
2022-09-11T11:45:39.961Z,7744.00
2022-09-11T11:46:39.919Z,8520.00
2022-09-11T11:47:39.914Z,7548.00
2022-09-11T11:48:40.043Z,5324.00
2022-09-11T11:49:39.906Z,3256.00
2022-09-11T11:50:39.872Z,3040.00
2022-09-11T11:51:39.871Z,3888.00
2022-09-11T11:52:39.859Z,7444.00
2022-09-11T11:53:40.395Z,7540.00
2022-09-11T11:54:39.845Z,7564.00
2022-09-11T11:55:39.820Z,7460.00
2022-09-11T11:56:39.815Z,7192.00
2022-09-11T11:57:39.799Z,7384.00
2022-09-11T11:58:39.900Z,7360.00
2022-09-11T11:59:39.793Z,7156.00
2022-09-11T12:00:39.776Z,7292.00
2022-09-11T12:01:39.825Z,6840.00
2022-09-11T12:02:39.756Z,7656.00
2022-09-11T12:03:39.797Z,7860.00
2022-09-11T12:04:39.766Z,8260.00
2022-09-11T12:05:39.715Z,8204.00
2022-09-11T12:06:39.701Z,8156.00
2022-09-11T12:07:39.689Z,7832.00
2022-09-11T12:08:39.711Z,7600.00
2022-09-11T12:09:39.678Z,7232.00
2022-09-11T12:10:39.663Z,6452.00
2022-09-11T12:11:39.646Z,3544.00
2022-09-11T12:12:39.640Z,5448.00
2022-09-11T12:13:39.631Z,7040.00
2022-09-11T12:14:39.629Z,7016.00
2022-09-11T12:15:39.609Z,7788.00
2022-09-11T12:16:39.621Z,6908.00
2022-09-11T12:17:39.582Z,3960.00
2022-09-11T12:18:39.576Z,3444.00
2022-09-11T12:19:39.573Z,3168.00
2022-09-11T12:20:39.574Z,7120.00
2022-09-11T12:21:39.558Z,7160.00
2022-09-11T12:22:39.531Z,7320.00
2022-09-11T12:23:39.523Z,7476.00
2022-09-11T12:24:39.544Z,7508.00
2022-09-11T12:25:39.492Z,7100.00
2022-09-11T12:26:39.483Z,6736.00
2022-09-11T12:27:39.475Z,6764.00
2022-09-11T12:28:39.460Z,4936.00
2022-09-11T12:29:39.472Z,4292.00
2022-09-11T12:30:39.446Z,6572.00
2022-09-11T12:31:39.462Z,7008.00
2022-09-11T12:32:39.425Z,6728.00
2022-09-11T12:33:39.430Z,6756.00
2022-09-11T12:34:39.414Z,6544.00
2022-09-11T12:35:39.395Z,3400.00
2022-09-11T12:36:39.394Z,3216.00
2022-09-11T12:37:39.365Z,4968.00
2022-09-11T12:38:39.356Z,6404.00
2022-09-11T12:39:39.502Z,6344.00